sensor_id;sensor_type;location;lat;lon;timestamp;pressure;altitude;pressure_sealevel;temperature;humidity
62976;BME280;49071;0.000;0.000;2023-05-02T05:23:42;100872.88;;;18.37;41.55
62976;BME280;49071;0.000;0.000;2023-05-02T05:26:44;100873.34;;;18.47;41.39
62976;BME280;49071;0.000;0.000;2023-05-02T05:29:45;100876.53;;;18.53;41.39
62976;BME280;49071;0.000;0.000;2023-05-02T05:32:45;100877.09;;;18.60;41.48
62976;BME280;49071;0.000;0.000;2023-05-02T05:35:45;100882.69;;;18.71;41.09
62976;BME280;49071;0.000;0.000;2023-05-02T05:38:45;100886.34;;;18.87;40.96
62976;BME280;49071;0.000;0.000;2023-05-02T05:41:46;100903.03;;;19.42;39.65
62976;BME280;49071;0.000;0.000;2023-05-02T05:44:46;100890.28;;;19.51;39.08
62976;BME280;49071;0.000;0.000;2023-05-02T05:47:46;100907.00;;;18.76;40.72
62976;BME280;49071;0.000;0.000;2023-05-02T05:50:46;100908.41;;;18.64;41.17
62976;BME280;49071;0.000;0.000;2023-05-02T05:53:47;100915.31;;;18.67;41.34
62976;BME280;49071;0.000;0.000;2023-05-02T05:56:47;100915.06;;;18.73;41.26
62976;BME280;49071;0.000;0.000;2023-05-02T05:59:47;100918.03;;;18.84;41.04
62976;BME280;49071;0.000;0.000;2023-05-02T06:02:48;100934.22;;;18.94;40.87
62976;BME280;49071;0.000;0.000;2023-05-02T06:05:48;100943.09;;;19.10;40.74
62976;BME280;49071;0.000;0.000;2023-05-02T06:08:48;100956.34;;;19.26;40.42
62976;BME280;49071;0.000;0.000;2023-05-02T06:11:48;100969.47;;;19.45;40.67
62976;BME280;49071;0.000;0.000;2023-05-02T06:14:48;100975.22;;;19.72;40.39
62976;BME280;49071;0.000;0.000;2023-05-02T06:17:52;100968.47;;;19.84;40.29
62976;BME280;49071;0.000;0.000;2023-05-02T06:20:52;100985.44;;;19.96;40.22
62976;BME280;49071;0.000;0.000;2023-05-02T06:23:52;100980.88;;;19.99;40.21
62976;BME280;49071;0.000;0.000;2023-05-02T06:26:52;100992.59;;;23.20;34.10
62976;BME280;49071;0.000;0.000;2023-05-02T06:29:52;100992.47;;;23.22;33.38
62976;BME280;49071;0.000;0.000;2023-05-02T06:32:53;100993.84;;;21.37;37.37
62976;BME280;49071;0.000;0.000;2023-05-02T06:35:53;101000.59;;;20.93;38.58
62976;BME280;49071;0.000;0.000;2023-05-02T06:38:53;101003.19;;;20.78;38.90
62976;BME280;49071;0.000;0.000;2023-05-02T06:41:56;101009.88;;;20.50;39.87
62976;BME280;49071;0.000;0.000;2023-05-02T06:44:57;101015.94;;;20.35;40.32
62976;BME280;49071;0.000;0.000;2023-05-02T06:47:57;101020.84;;;20.25;40.58
62976;BME280;49071;0.000;0.000;2023-05-02T06:50:57;101022.06;;;20.18;40.99
62976;BME280;49071;0.000;0.000;2023-05-02T06:53:57;101031.91;;;20.14;40.85
62976;BME280;49071;0.000;0.000;2023-05-02T06:56:58;101037.97;;;20.16;41.24
62976;BME280;49071;0.000;0.000;2023-05-02T06:59:58;101046.16;;;20.27;41.23
62976;BME280;49071;0.000;0.000;2023-05-02T07:02:58;101049.19;;;20.20;41.33
62976;BME280;49071;0.000;0.000;2023-05-02T07:05:59;101046.66;;;20.18;41.42
62976;BME280;49071;0.000;0.000;2023-05-02T07:08:59;101061.13;;;20.27;41.23
62976;BME280;49071;0.000;0.000;2023-05-02T07:11:59;101061.66;;;20.34;41.15
62976;BME280;49071;0.000;0.000;2023-05-02T07:15:01;101067.78;;;20.34;40.93
62976;BME280;49071;0.000;0.000;2023-05-02T07:18:01;101074.00;;;20.33;40.98
62976;BME280;49071;0.000;0.000;2023-05-02T07:21:02;101079.31;;;20.32;40.74
62976;BME280;49071;0.000;0.000;2023-05-02T07:24:02;101075.09;;;20.29;40.98
62976;BME280;49071;0.000;0.000;2023-05-02T07:27:03;101088.31;;;20.27;40.91
62976;BME280;49071;0.000;0.000;2023-05-02T07:30:04;101097.16;;;20.26;40.98
62976;BME280;49071;0.000;0.000;2023-05-02T07:33:05;101088.47;;;20.24;40.95
62976;BME280;49071;0.000;0.000;2023-05-02T07:36:06;101097.25;;;20.25;41.16
62976;BME280;49071;0.000;0.000;2023-05-02T07:39:06;101095.66;;;20.21;41.10
62976;BME280;49071;0.000;0.000;2023-05-02T07:42:06;101100.38;;;20.14;41.32
62976;BME280;49071;0.000;0.000;2023-05-02T07:45:07;101100.38;;;20.14;41.14
62976;BME280;49071;0.000;0.000;2023-05-02T07:48:07;101102.09;;;20.15;41.34
62976;BME280;49071;0.000;0.000;2023-05-02T07:51:08;101100.31;;;20.16;41.28
62976;BME280;49071;0.000;0.000;2023-05-02T07:54:15;101094.22;;;20.15;41.14
62976;BME280;49071;0.000;0.000;2023-05-02T07:57:15;101099.47;;;20.15;41.18
62976;BME280;49071;0.000;0.000;2023-05-02T08:00:16;101099.53;;;20.14;41.28
62976;BME280;49071;0.000;0.000;2023-05-02T08:03:16;101101.31;;;20.13;41.50
62976;BME280;49071;0.000;0.000;2023-05-02T08:06:16;101103.00;;;20.14;41.58
62976;BME280;49071;0.000;0.000;2023-05-02T08:09:16;101111.00;;;20.13;41.52
62976;BME280;49071;0.000;0.000;2023-05-02T08:12:17;101120.69;;;20.12;41.32
62976;BME280;49071;0.000;0.000;2023-05-02T08:15:17;101129.50;;;20.11;41.54
62976;BME280;49071;0.000;0.000;2023-05-02T08:18:17;101125.03;;;20.13;41.21
62976;BME280;49071;0.000;0.000;2023-05-02T08:21:17;101127.66;;;20.13;41.33
62976;BME280;49071;0.000;0.000;2023-05-02T08:24:17;101125.03;;;20.13;41.42
62976;BME280;49071;0.000;0.000;2023-05-02T08:27:18;101138.19;;;20.13;41.18
62976;BME280;49071;0.000;0.000;2023-05-02T08:30:18;101138.19;;;20.13;41.30
62976;BME280;49071;0.000;0.000;2023-05-02T08:33:18;101125.03;;;20.13;41.36
62976;BME280;49071;0.000;0.000;2023-05-02T08:36:18;101131.13;;;20.14;41.38
62976;BME280;49071;0.000;0.000;2023-05-02T08:39:18;101147.78;;;20.14;41.27
62976;BME280;49071;0.000;0.000;2023-05-02T08:42:19;101145.09;;;20.16;41.48
62976;BME280;49071;0.000;0.000;2023-05-02T08:45:21;101147.72;;;20.16;41.41
62976;BME280;49071;0.000;0.000;2023-05-02T08:48:22;101143.31;;;20.16;41.44
62976;BME280;49071;0.000;0.000;2023-05-02T08:51:23;101157.31;;;20.17;41.21
62976;BME280;49071;0.000;0.000;2023-05-02T08:54:23;101165.31;;;20.15;41.15
62976;BME280;49071;0.000;0.000;2023-05-02T08:57:24;101179.25;;;20.17;41.25
62976;BME280;49071;0.000;0.000;2023-05-02T09:00:25;101177.56;;;20.16;41.39
62976;BME280;49071;0.000;0.000;2023-05-02T09:03:28;101181.31;;;20.11;41.54
62976;BME280;49071;0.000;0.000;2023-05-02T09:06:28;101175.34;;;20.07;41.45
62976;BME280;49071;0.000;0.000;2023-05-02T09:09:28;101177.28;;;20.03;41.39
62976;BME280;49071;0.000;0.000;2023-05-02T09:12:30;101187.91;;;20.02;41.60
62976;BME280;49071;0.000;0.000;2023-05-02T09:15:31;101192.22;;;20.03;41.27
62976;BME280;49071;0.000;0.000;2023-05-02T09:18:52;101195.09;;;19.98;41.40
62976;BME280;49071;0.000;0.000;2023-05-02T09:21:51;101201.97;;;20.01;41.66
62976;BME280;49071;0.000;0.000;2023-05-02T09:24:57;101216.34;;;19.94;41.51
62976;BME280;49071;0.000;0.000;2023-05-02T09:27:58;101208.72;;;19.88;41.61
62976;BME280;49071;0.000;0.000;2023-05-02T09:31:07;101215.00;;;19.85;41.76
62976;BME280;49071;0.000;0.000;2023-05-02T09:34:09;101214.34;;;19.80;41.54
62976;BME280;49071;0.000;0.000;2023-05-02T09:37:09;101222.19;;;19.81;41.53
62976;BME280;49071;0.000;0.000;2023-05-02T09:40:10;101208.91;;;19.85;41.94
62976;BME280;49071;0.000;0.000;2023-05-02T09:43:13;101221.34;;;19.81;41.66
62976;BME280;49071;0.000;0.000;2023-05-02T09:46:15;101223.09;;;19.80;41.65
62976;BME280;49071;0.000;0.000;2023-05-02T09:49:16;101218.78;;;19.79;41.83
62976;BME280;49071;0.000;0.000;2023-05-02T09:52:19;101227.75;;;19.75;41.53
62976;BME280;49071;0.000;0.000;2023-05-02T09:55:22;101228.66;;;19.74;41.96
62976;BME280;49071;0.000;0.000;2023-05-02T09:58:22;101228.59;;;19.76;41.62
62976;BME280;49071;0.000;0.000;2023-05-02T10:01:23;101233.00;;;19.75;41.88
62976;BME280;49071;0.000;0.000;2023-05-02T10:04:23;101243.66;;;19.72;41.80
62976;BME280;49071;0.000;0.000;2023-05-02T10:07:24;101237.69;;;19.69;41.85
62976;BME280;49071;0.000;0.000;2023-05-02T10:10:24;101236.75;;;19.70;42.04
62976;BME280;49071;0.000;0.000;2023-05-02T10:13:25;101239.47;;;19.68;41.82
62976;BME280;49071;0.000;0.000;2023-05-02T10:16:30;101247.41;;;19.67;41.77
62976;BME280;49071;0.000;0.000;2023-05-02T10:19:53;101248.44;;;19.63;42.17
62976;BME280;49071;0.000;0.000;2023-05-02T10:22:55;101253.97;;;19.56;42.12
62976;BME280;49071;0.000;0.000;2023-05-02T10:25:57;101259.31;;;19.55;42.01
62976;BME280;49071;0.000;0.000;2023-05-02T10:28:58;101255.84;;;19.54;42.08
62976;BME280;49071;0.000;0.000;2023-05-02T10:31:59;101264.63;;;19.53;42.02
62976;BME280;49071;0.000;0.000;2023-05-02T10:35:04;101262.13;;;19.50;42.27
62976;BME280;49071;0.000;0.000;2023-05-02T10:38:04;101277.06;;;19.50;42.03
62976;BME280;49071;0.000;0.000;2023-05-02T10:41:18;101278.09;;;19.47;42.02
62976;BME280;49071;0.000;0.000;2023-05-02T10:44:35;101279.06;;;19.45;42.34
62976;BME280;49071;0.000;0.000;2023-05-02T10:47:35;101277.34;;;19.44;42.04
62976;BME280;49071;0.000;0.000;2023-05-02T10:51:09;101281.75;;;19.43;42.32
62976;BME280;49071;0.000;0.000;2023-05-02T10:57:14;101276.31;;;19.48;42.15
62976;BME280;49071;0.000;0.000;2023-05-02T11:00:21;101273.59;;;19.49;42.07
62976;BME280;49071;0.000;0.000;2023-05-02T11:03:52;101273.59;;;19.49;41.94
62976;BME280;49071;0.000;0.000;2023-05-02T11:10:43;101276.50;;;19.43;41.94
62976;BME280;49071;0.000;0.000;2023-05-02T11:26:20;101281.25;;;19.35;42.20
62976;BME280;49071;0.000;0.000;2023-05-02T11:35:48;101295.25;;;19.35;42.08
62976;BME280;49071;0.000;0.000;2023-05-02T11:38:48;101290.91;;;19.34;41.97
62976;BME280;49071;0.000;0.000;2023-05-02T11:41:50;101294.44;;;19.33;42.21
62976;BME280;49071;0.000;0.000;2023-05-02T11:44:57;101300.75;;;19.29;42.11
62976;BME280;49071;0.000;0.000;2023-05-02T11:47:57;101314.97;;;19.25;42.10
62976;BME280;49071;0.000;0.000;2023-05-02T11:50:58;101318.66;;;19.21;42.30
62976;BME280;49071;0.000;0.000;2023-05-02T11:54:02;101321.41;;;19.18;42.39
62976;BME280;49071;0.000;0.000;2023-05-02T11:57:02;101324.16;;;19.15;42.56
62976;BME280;49071;0.000;0.000;2023-05-02T12:00:03;101331.19;;;19.15;42.25
62976;BME280;49071;0.000;0.000;2023-05-02T12:03:03;101337.38;;;19.14;42.79
62976;BME280;49071;0.000;0.000;2023-05-02T12:06:11;101343.53;;;19.13;42.41
62976;BME280;49071;0.000;0.000;2023-05-02T12:09:13;101344.38;;;19.13;42.54
62976;BME280;49071;0.000;0.000;2023-05-02T12:12:18;101348.78;;;19.13;42.60
62976;BME280;49071;0.000;0.000;2023-05-02T12:15:18;101352.28;;;19.13;42.68
62976;BME280;49071;0.000;0.000;2023-05-02T12:18:19;101353.22;;;19.12;42.55
62976;BME280;49071;0.000;0.000;2023-05-02T12:21:22;101347.22;;;19.08;42.66
62976;BME280;49071;0.000;0.000;2023-05-02T12:24:23;101352.56;;;19.07;42.34
62976;BME280;49071;0.000;0.000;2023-05-02T12:27:23;101364.81;;;19.06;42.38
62976;BME280;49071;0.000;0.000;2023-05-02T12:30:24;101352.59;;;19.05;42.51
62976;BME280;49071;0.000;0.000;2023-05-02T12:33:24;101366.59;;;19.06;42.50
62976;BME280;49071;0.000;0.000;2023-05-02T12:36:25;101358.06;;;19.01;42.56
62976;BME280;49071;0.000;0.000;2023-05-02T12:40:00;101376.38;;;19.02;42.44
62976;BME280;49071;0.000;0.000;2023-05-02T12:43:01;101371.13;;;19.02;42.67
62976;BME280;49071;0.000;0.000;2023-05-02T12:46:09;101376.38;;;19.02;42.56
62976;BME280;49071;0.000;0.000;2023-05-02T12:49:09;101376.34;;;19.04;42.70
62976;BME280;49071;0.000;0.000;2023-05-02T12:52:11;101386.91;;;19.02;42.65
62976;BME280;49071;0.000;0.000;2023-05-02T12:55:17;101392.22;;;19.01;42.70
62976;BME280;49071;0.000;0.000;2023-05-02T12:58:18;101402.75;;;19.01;42.32
62976;BME280;49071;0.000;0.000;2023-05-02T13:01:18;101413.31;;;18.99;42.65
62976;BME280;49071;0.000;0.000;2023-05-02T13:04:18;101408.97;;;18.98;42.84
62976;BME280;49071;0.000;0.000;2023-05-02T13:07:18;101406.41;;;18.97;42.90
62976;BME280;49071;0.000;0.000;2023-05-02T13:10:18;101407.31;;;18.96;42.86
62976;BME280;49071;0.000;0.000;2023-05-02T13:13:18;101414.34;;;18.95;42.77
62976;BME280;49071;0.000;0.000;2023-05-02T13:16:19;101424.00;;;18.95;42.56
62976;BME280;49071;0.000;0.000;2023-05-02T13:19:20;101427.56;;;18.94;42.70
62976;BME280;49071;0.000;0.000;2023-05-02T13:22:20;101432.88;;;18.92;42.93
62976;BME280;49071;0.000;0.000;2023-05-02T13:25:21;101439.91;;;18.92;42.96
62976;BME280;49071;0.000;0.000;2023-05-02T13:28:21;101443.38;;;18.92;43.25
62976;BME280;49071;0.000;0.000;2023-05-02T13:31:21;101444.25;;;18.93;43.23
62976;BME280;49071;0.000;0.000;2023-05-02T13:34:21;101447.78;;;18.92;43.38
62976;BME280;49071;0.000;0.000;2023-05-02T13:37:22;101448.66;;;18.92;43.31
62976;BME280;49071;0.000;0.000;2023-05-02T13:40:22;101457.38;;;18.93;43.31
62976;BME280;49071;0.000;0.000;2023-05-02T13:43:22;101456.41;;;18.95;43.34
62976;BME280;49071;0.000;0.000;2023-05-02T13:46:23;101466.06;;;18.95;43.61
62976;BME280;49071;0.000;0.000;2023-05-02T13:49:23;101466.00;;;18.96;43.45
62976;BME280;49071;0.000;0.000;2023-05-02T13:52:23;101462.59;;;18.94;43.03
62976;BME280;49071;0.000;0.000;2023-05-02T13:55:23;101469.63;;;18.94;43.21
62976;BME280;49071;0.000;0.000;2023-05-02T13:58:24;101470.53;;;18.93;43.39
62976;BME280;49071;0.000;0.000;2023-05-02T14:01:24;101469.66;;;18.92;43.17
62976;BME280;49071;0.000;0.000;2023-05-02T14:04:27;101474.94;;;18.92;43.05
62976;BME280;49071;0.000;0.000;2023-05-02T14:07:27;101474.06;;;18.92;43.35
62976;BME280;49071;0.000;0.000;2023-05-02T14:10:28;101476.72;;;18.92;43.13
62976;BME280;49071;0.000;0.000;2023-05-02T14:13:28;101479.34;;;18.92;43.06
62976;BME280;49071;0.000;0.000;2023-05-02T14:16:28;101488.94;;;18.93;43.21
62976;BME280;49071;0.000;0.000;2023-05-02T14:19:29;101488.88;;;18.94;43.21
62976;BME280;49071;0.000;0.000;2023-05-02T14:22:29;101488.88;;;18.94;43.19
62976;BME280;49071;0.000;0.000;2023-05-02T14:25:30;101486.19;;;18.96;42.91
62976;BME280;49071;0.000;0.000;2023-05-02T14:28:30;101497.63;;;18.95;43.08
62976;BME280;49071;0.000;0.000;2023-05-02T14:31:30;101495.84;;;18.95;43.11
62976;BME280;49071;0.000;0.000;2023-05-02T14:34:30;101497.56;;;18.96;42.81
62976;BME280;49071;0.000;0.000;2023-05-02T14:37:30;101501.97;;;18.96;42.98
62976;BME280;49071;0.000;0.000;2023-05-02T14:40:30;101501.97;;;18.96;42.97
62976;BME280;49071;0.000;0.000;2023-05-02T14:43:31;101493.22;;;18.95;42.99
62976;BME280;49071;0.000;0.000;2023-05-02T14:46:31;101495.91;;;18.94;42.88
62976;BME280;49071;0.000;0.000;2023-05-02T14:49:31;101496.78;;;18.94;42.74
62976;BME280;49071;0.000;0.000;2023-05-02T14:52:31;101506.38;;;18.95;42.93
62976;BME280;49071;0.000;0.000;2023-05-02T14:55:39;101510.78;;;18.95;42.92
62976;BME280;49071;0.000;0.000;2023-05-02T14:58:39;101512.53;;;18.94;42.69
62976;BME280;49071;0.000;0.000;2023-05-02T15:01:39;101511.63;;;18.95;42.76
62976;BME280;49071;0.000;0.000;2023-05-02T15:04:39;101529.19;;;18.95;42.92
62976;BME280;49071;0.000;0.000;2023-05-02T15:07:39;101531.84;;;18.93;42.86
62976;BME280;49071;0.000;0.000;2023-05-02T15:10:40;101531.00;;;18.93;43.04
62976;BME280;49071;0.000;0.000;2023-05-02T15:13:40;101525.72;;;18.93;42.85
62976;BME280;49071;0.000;0.000;2023-05-02T15:16:40;101536.25;;;18.93;42.89
62976;BME280;49071;0.000;0.000;2023-05-02T15:19:40;101536.25;;;18.93;42.64
62976;BME280;49071;0.000;0.000;2023-05-02T15:22:41;101534.53;;;18.92;42.72
62976;BME280;49071;0.000;0.000;2023-05-02T15:25:41;101550.38;;;18.90;43.02
62976;BME280;49071;0.000;0.000;2023-05-02T15:28:41;101553.00;;;18.90;42.99
62976;BME280;49071;0.000;0.000;2023-05-02T15:31:41;101547.75;;;18.90;43.12
62976;BME280;49071;0.000;0.000;2023-05-02T15:34:41;101554.75;;;18.90;42.85
62976;BME280;49071;0.000;0.000;2023-05-02T15:37:42;101553.91;;;18.89;42.96
62976;BME280;49071;0.000;0.000;2023-05-02T15:40:42;101560.00;;;18.90;42.74
62976;BME280;49071;0.000;0.000;2023-05-02T15:43:42;101560.94;;;18.88;42.87
62976;BME280;49071;0.000;0.000;2023-05-02T15:46:42;101570.59;;;18.88;43.06
62976;BME280;49071;0.000;0.000;2023-05-02T15:49:45;101575.91;;;18.86;43.20
62976;BME280;49071;0.000;0.000;2023-05-02T15:52:45;101575.84;;;18.88;42.75
62976;BME280;49071;0.000;0.000;2023-05-02T15:55:46;101574.16;;;18.87;43.12
62976;BME280;49071;0.000;0.000;2023-05-02T15:58:46;101575.91;;;18.86;43.34
62976;BME280;49071;0.000;0.000;2023-05-02T16:01:47;101589.03;;;18.86;43.01
62976;BME280;49071;0.000;0.000;2023-05-02T16:04:47;101577.66;;;18.86;42.92
62976;BME280;49071;0.000;0.000;2023-05-02T16:07:47;101582.06;;;18.85;43.21
62976;BME280;49071;0.000;0.000;2023-05-02T16:10:48;101591.75;;;18.85;42.86
62976;BME280;49071;0.000;0.000;2023-05-02T16:13:48;101590.88;;;18.84;43.00
62976;BME280;49071;0.000;0.000;2023-05-02T16:16:48;101601.41;;;18.84;42.93
62976;BME280;49071;0.000;0.000;2023-05-02T16:19:49;101605.81;;;18.84;42.95
62976;BME280;49071;0.000;0.000;2023-05-02T16:22:49;101612.88;;;18.82;43.02
62976;BME280;49071;0.000;0.000;2023-05-02T16:25:56;101620.75;;;18.82;43.27
62976;BME280;49071;0.000;0.000;2023-05-02T16:28:57;101620.75;;;18.82;42.91
62976;BME280;49071;0.000;0.000;2023-05-02T16:31:57;101620.81;;;18.80;42.88
62976;BME280;49071;0.000;0.000;2023-05-02T16:34:58;101621.72;;;18.79;43.15
62976;BME280;49071;0.000;0.000;2023-05-02T16:37:58;101629.59;;;18.79;42.92
62976;BME280;49071;0.000;0.000;2023-05-02T16:41:01;101632.22;;;18.79;43.05
62976;BME280;49071;0.000;0.000;2023-05-02T16:44:01;101640.13;;;18.79;43.37
62976;BME280;49071;0.000;0.000;2023-05-02T16:47:02;101643.66;;;18.78;43.03
62976;BME280;49071;0.000;0.000;2023-05-02T16:50:02;101658.59;;;18.78;43.04
62976;BME280;49071;0.000;0.000;2023-05-02T16:53:02;101663.88;;;18.76;43.01
62976;BME280;49071;0.000;0.000;2023-05-02T16:56:02;101659.53;;;18.75;43.41
62976;BME280;49071;0.000;0.000;2023-05-02T16:59:03;101656.06;;;18.75;43.55
62976;BME280;49071;0.000;0.000;2023-05-02T17:02:03;101669.19;;;18.75;43.41
62976;BME280;49071;0.000;0.000;2023-05-02T17:05:03;101659.53;;;18.75;43.51
62976;BME280;49071;0.000;0.000;2023-05-02T17:08:03;101670.88;;;18.77;43.61
62976;BME280;49071;0.000;0.000;2023-05-02T17:11:04;101682.28;;;18.76;43.57
62976;BME280;49071;0.000;0.000;2023-05-02T17:14:04;101686.69;;;18.76;43.73
62976;BME280;49071;0.000;0.000;2023-05-02T17:17:05;101689.28;;;18.77;44.06
62976;BME280;49071;0.000;0.000;2023-05-02T17:20:05;101687.31;;;18.82;43.92
62976;BME280;49071;0.000;0.000;2023-05-02T17:23:05;101695.31;;;18.79;43.44
62976;BME280;49071;0.000;0.000;2023-05-02T17:26:06;101695.41;;;18.76;43.62
62976;BME280;49071;0.000;0.000;2023-05-02T17:29:13;101701.56;;;18.77;43.97
62976;BME280;49071;0.000;0.000;2023-05-02T17:32:14;101701.50;;;18.78;43.72
62976;BME280;49071;0.000;0.000;2023-05-02T17:35:14;101708.41;;;18.81;43.87
62976;BME280;49071;0.000;0.000;2023-05-02T17:38:16;101710.13;;;18.82;43.98
62976;BME280;49071;0.000;0.000;2023-05-02T17:41:16;101712.00;;;18.78;44.01
62976;BME280;49071;0.000;0.000;2023-05-02T17:44:16;101720.81;;;18.77;43.73
62976;BME280;49071;0.000;0.000;2023-05-02T17:47:17;101720.81;;;18.77;43.83
62976;BME280;49071;0.000;0.000;2023-05-02T17:50:18;101726.91;;;18.78;43.81
62976;BME280;49071;0.000;0.000;2023-05-02T17:53:18;101721.66;;;18.78;43.92
62976;BME280;49071;0.000;0.000;2023-05-02T17:56:19;101726.91;;;18.78;43.90
62976;BME280;49071;0.000;0.000;2023-05-02T17:59:19;101728.72;;;18.76;44.02
62976;BME280;49071;0.000;0.000;2023-05-02T18:02:21;101729.66;;;18.75;44.44
62976;BME280;49071;0.000;0.000;2023-05-02T18:05:21;101740.97;;;18.77;44.34
62976;BME280;49071;0.000;0.000;2023-05-02T18:08:22;101745.31;;;18.78;44.38
62976;BME280;49071;0.000;0.000;2023-05-02T18:11:22;101752.28;;;18.79;44.70
62976;BME280;49071;0.000;0.000;2023-05-02T18:14:23;101746.06;;;18.81;44.83
62976;BME280;49071;0.000;0.000;2023-05-02T18:17:23;101752.09;;;18.85;45.34
62976;BME280;49071;0.000;0.000;2023-05-02T18:20:24;101748.53;;;18.86;45.75
62976;BME280;49071;0.000;0.000;2023-05-02T18:23:24;101756.38;;;18.87;45.18
62976;BME280;49071;0.000;0.000;2023-05-02T18:26:24;101763.47;;;18.85;45.40
62976;BME280;49071;0.000;0.000;2023-05-02T18:29:25;101764.28;;;18.87;45.30
62976;BME280;49071;0.000;0.000;2023-05-02T18:32:25;101767.78;;;18.86;45.09
62976;BME280;49071;0.000;0.000;2023-05-02T18:35:26;101767.84;;;18.85;45.17
62976;BME280;49071;0.000;0.000;2023-05-02T18:38:26;101767.84;;;18.85;45.19
62976;BME280;49071;0.000;0.000;2023-05-02T18:41:26;101771.31;;;18.87;45.32
62976;BME280;49071;0.000;0.000;2023-05-02T18:44:26;101784.44;;;18.87;45.09
62976;BME280;49071;0.000;0.000;2023-05-02T18:47:27;101784.38;;;18.88;45.31
62976;BME280;49071;0.000;0.000;2023-05-02T18:50:27;101780.91;;;18.88;45.30
62976;BME280;49071;0.000;0.000;2023-05-02T18:53:27;101785.31;;;18.87;45.41
62976;BME280;49071;0.000;0.000;2023-05-02T18:56:28;101787.00;;;18.88;45.45
62976;BME280;49071;0.000;0.000;2023-05-02T18:59:28;101791.34;;;18.90;45.29
62976;BME280;49071;0.000;0.000;2023-05-02T19:02:28;101797.44;;;18.92;45.41
62976;BME280;49071;0.000;0.000;2023-05-02T19:05:28;101796.63;;;18.90;45.27
62976;BME280;49071;0.000;0.000;2023-05-02T19:08:29;101787.78;;;18.92;45.20
62976;BME280;49071;0.000;0.000;2023-05-02T19:11:29;101792.94;;;18.95;45.69
62976;BME280;49071;0.000;0.000;2023-05-02T19:14:30;101799.09;;;18.94;45.67
62976;BME280;49071;0.000;0.000;2023-05-02T19:17:32;101802.53;;;18.96;45.45
62976;BME280;49071;0.000;0.000;2023-05-02T19:20:32;101800.00;;;18.93;45.43
62976;BME280;49071;0.000;0.000;2023-05-02T19:23:32;101795.72;;;18.91;45.09
62976;BME280;49071;0.000;0.000;2023-05-02T19:26:32;101805.38;;;18.90;45.70
62976;BME280;49071;0.000;0.000;2023-05-02T19:29:33;101814.16;;;18.89;45.36
62976;BME280;49071;0.000;0.000;2023-05-02T19:32:33;101811.41;;;18.94;45.36
62976;BME280;49071;0.000;0.000;2023-05-02T19:35:37;101804.50;;;18.90;45.19
62976;BME280;49071;0.000;0.000;2023-05-02T19:38:37;101814.16;;;18.89;45.45
62976;BME280;49071;0.000;0.000;2023-05-02T19:41:37;101818.47;;;18.92;45.63
62976;BME280;49071;0.000;0.000;2023-05-02T19:44:39;101817.53;;;18.93;45.83
62976;BME280;49071;0.000;0.000;2023-05-02T19:47:39;101815.78;;;18.93;45.66
62976;BME280;49071;0.000;0.000;2023-05-02T19:50:43;101822.81;;;18.93;45.22
62976;BME280;49071;0.000;0.000;2023-05-02T19:53:43;101821.16;;;18.90;45.10
